Aérodrome :
LOGIN :

S'inscrire | Disclaimer

   EN    FR    IT 

 










Légende :    VFR   VFR Marginal   IFR   IFR Intensif   IFR Très Intensif
Visi : 
Plafond : 
>= 8 km
>= 3000ft
5 à 8 km
1000 à 3000 ft
1500m à 5 km
500 à 1000 ft
800 à 1500m
200 à 500 ft
< 800m
< 200 ft
Symboles :   Orages  Brouillard  Fortes neiges  Fortes précipitations  Vent > 20 kt
SIGMETs :   Divers  Orages  Givrage  Turbulence  Onde Orograph.  Cendres Volcan.







- Altitude de l'aérodrome : 776 ft
- Code IATA : RMS


ETAR - Ramstein Air Base

DERNIER METAR :
  • 180256Z 00000KT 0400 FG VV001 06/06 A3003 RMK AO2A SLP171 T00630063 58006 $

METARs EXPIRÉS :
  • 180156Z 00000KT 0400 FG VV001 07/07 A3004 RMK AO2A SLP173 T00650065 $
  • 180056Z 00000KT 0400 FG OVC002 07/07 A3005 RMK AO2A SLP177 T00710071 $

TAF TAF ETAR
Valide du 18 à 02h jusqu'au 19 à 08h UTC


180205Z 1802/1908 VRB03KT 0400 FG VV001 QNH2999INS
BECMG 1806/1807 VRB06KT 2400 BR SCT002 QNH2996INS
BECMG 1807/1808 22007KT 9999 NSW SKC QNH2992INS
BECMG 1820/1821 VRB06KT 5000 BR SKC QNH2992INS
BECMG 1823/1824 VRB03KT 2400 BR SKC QNH2994INS
BECMG 1906/1907 VRB06KT 9999 NSW SKC QNH2990INS TX22/1813Z TN05/1804Z
Pas de NOTAMs connus pour ce terrain.



MET'MAP, la Météo Aéronautique d'un coup d'oeil ! - Copyright ORBIFLY Décembre 2007 - Disclaimer

ORBIFLY MET'MAP TEAM :

Programmation & Développement : Alexandra Zaïnal
Conception & Développement : Baudouin d'Aumeries
Co-Programmation & Développement : Marc-Olivier Méhu
Soutien technique & logistique : Manuel Goepfert

Contact : metmap@orbifly.com




SOURCES & CREDITS :

   NOAA